KSVC/SVC METAR and TAF weather

Enter ICAO airport designator
Station Type Date Time Source
KSVC METAR 2021/07/28 19:35 UTC NOAA

KSVC 281935Z AUTO 15004G08KT 10SM BKN100 31/08 A3024 RMK AO2 LTG DSNT SW THRU N T03110075


Station Type Date Time Source
KSVC Decoded METAR 2021/07/28 19:35 UTC NOAA

Silver City / Grant, NM, United States (KSVC) 32-38N 108-09W
Jul 28, 2021 - 03:35 PM EDT / 2021.07.28 1935 UTC
Wind: from the SSE (150 degrees) at 5 MPH (4 KT) gusting to 9 MPH (8 KT):0
Visibility: 10 mile(s):0
Sky conditions: mostly cloudy
Weather: Lightning observed
Temperature: 88.0 F (31.1 C)
Dew Point: 45.5 F (7.5 C)
Relative Humidity: 22%
Pressure (altimeter): 30.24 in. Hg (1024 hPa)
ob: KSVC 281935Z AUTO 15004G08KT 10SM BKN100 31/08 A3024 RMK AO2 LTG DSNT SW THRU N T03110075
cycle: 19

Station Type Date Time Source
KSVC TAF UTC NOAA

Error!

Example: see airport list